Minnetrista, Minnesota
Current Conditions -  °F | °C
As of 5:53 PM on Monday 20 Oct 2014 (Local Time) from KFCM Reporting Station
Clear Clear  
Wind Chill: 16°   Ceiling: Unl
Heat Index: 16°   Visibility: 10mi
Dew Point:   Wind: 9mph
Humidity: 47%   Direction: 330°NNW
Pressure: 30"   Gusts: NA
Location:  44.8587°N, 93.7796°W
Report Text: KFCM 202253Z 33008KT 10SM CLR 16/04 A3000 RMK AO2 SLP161 T01560044
Loading
Personal Weather Stations






























Interactive Weather Map
Tropical Storm Tracking
New forecast layout! Learn more

10-Day Weather Forecast

Advertisements
Track Severe Weather on mobile